sensor_id;sensor_type;location;lat;lon;timestamp;temperature;humidity
37002;DHT22;22913;51.910;8.374;2022-07-06T00:01:20;16.60;99.90
37002;DHT22;22913;51.910;8.374;2022-07-06T00:04:06;16.50;99.90
37002;DHT22;22913;51.910;8.374;2022-07-06T00:06:53;16.50;99.90
37002;DHT22;22913;51.910;8.374;2022-07-06T00:09:39;16.40;99.90
37002;DHT22;22913;51.910;8.374;2022-07-06T00:12:25;16.30;99.90
37002;DHT22;22913;51.910;8.374;2022-07-06T00:15:11;16.30;99.90
37002;DHT22;22913;51.910;8.374;2022-07-06T00:17:56;16.20;99.90
37002;DHT22;22913;51.910;8.374;2022-07-06T00:20:42;16.10;99.90
37002;DHT22;22913;51.910;8.374;2022-07-06T00:23:29;16.10;99.90
37002;DHT22;22913;51.910;8.374;2022-07-06T00:26:15;16.00;99.90
37002;DHT22;22913;51.910;8.374;2022-07-06T00:29:01;16.00;99.90
37002;DHT22;22913;51.910;8.374;2022-07-06T00:31:47;16.00;99.90
37002;DHT22;22913;51.910;8.374;2022-07-06T00:34:32;16.00;99.90
37002;DHT22;22913;51.910;8.374;2022-07-06T00:37:19;15.80;99.90
37002;DHT22;22913;51.910;8.374;2022-07-06T00:40:07;15.80;99.90
37002;DHT22;22913;51.910;8.374;2022-07-06T00:42:53;15.80;99.90
37002;DHT22;22913;51.910;8.374;2022-07-06T00:45:39;15.70;99.90
37002;DHT22;22913;51.910;8.374;2022-07-06T00:48:24;15.70;99.90
37002;DHT22;22913;51.910;8.374;2022-07-06T00:51:11;15.60;99.90
37002;DHT22;22913;51.910;8.374;2022-07-06T00:53:59;15.50;99.90
37002;DHT22;22913;51.910;8.374;2022-07-06T00:56:46;15.50;99.90
37002;DHT22;22913;51.910;8.374;2022-07-06T00:59:32;15.40;99.90
37002;DHT22;22913;51.910;8.374;2022-07-06T01:02:17;15.40;99.90
37002;DHT22;22913;51.910;8.374;2022-07-06T01:05:05;15.40;99.90
37002;DHT22;22913;51.910;8.374;2022-07-06T01:07:52;15.40;99.90
37002;DHT22;22913;51.910;8.374;2022-07-06T01:10:38;15.30;99.90
37002;DHT22;22913;51.910;8.374;2022-07-06T01:13:25;15.30;99.90
37002;DHT22;22913;51.910;8.374;2022-07-06T01:16:11;15.30;99.90
37002;DHT22;22913;51.910;8.374;2022-07-06T01:18:57;15.30;99.90
37002;DHT22;22913;51.910;8.374;2022-07-06T01:21:44;15.30;99.90
37002;DHT22;22913;51.910;8.374;2022-07-06T01:24:30;15.20;99.90
37002;DHT22;22913;51.910;8.374;2022-07-06T01:27:15;15.20;99.90
37002;DHT22;22913;51.910;8.374;2022-07-06T01:30:01;15.20;99.90
37002;DHT22;22913;51.910;8.374;2022-07-06T01:32:47;15.10;99.90
37002;DHT22;22913;51.910;8.374;2022-07-06T01:35:34;15.00;99.90
37002;DHT22;22913;51.910;8.374;2022-07-06T01:38:22;15.10;99.90
37002;DHT22;22913;51.910;8.374;2022-07-06T01:41:07;15.20;99.90
37002;DHT22;22913;51.910;8.374;2022-07-06T01:43:53;15.10;99.90
37002;DHT22;22913;51.910;8.374;2022-07-06T01:46:39;15.10;99.90
37002;DHT22;22913;51.910;8.374;2022-07-06T01:49:25;15.20;99.90
37002;DHT22;22913;51.910;8.374;2022-07-06T01:52:11;15.20;99.90
37002;DHT22;22913;51.910;8.374;2022-07-06T01:54:58;15.10;99.90
37002;DHT22;22913;51.910;8.374;2022-07-06T01:57:43;15.00;99.90
37002;DHT22;22913;51.910;8.374;2022-07-06T02:00:29;15.10;99.90
37002;DHT22;22913;51.910;8.374;2022-07-06T02:03:15;15.10;99.90
37002;DHT22;22913;51.910;8.374;2022-07-06T02:06:01;15.10;99.90
37002;DHT22;22913;51.910;8.374;2022-07-06T02:08:46;15.10;99.90
37002;DHT22;22913;51.910;8.374;2022-07-06T02:11:33;15.10;99.90
37002;DHT22;22913;51.910;8.374;2022-07-06T02:14:19;15.10;99.90
37002;DHT22;22913;51.910;8.374;2022-07-06T02:17:04;15.10;99.90
37002;DHT22;22913;51.910;8.374;2022-07-06T02:19:50;15.00;99.90
37002;DHT22;22913;51.910;8.374;2022-07-06T02:22:36;15.00;99.90
37002;DHT22;22913;51.910;8.374;2022-07-06T02:25:21;15.00;99.90
37002;DHT22;22913;51.910;8.374;2022-07-06T02:28:08;15.00;99.90
37002;DHT22;22913;51.910;8.374;2022-07-06T02:30:54;14.90;99.90
37002;DHT22;22913;51.910;8.374;2022-07-06T02:33:40;14.90;99.90
37002;DHT22;22913;51.910;8.374;2022-07-06T02:36:26;14.80;99.90
37002;DHT22;22913;51.910;8.374;2022-07-06T02:39:12;14.90;99.90
37002;DHT22;22913;51.910;8.374;2022-07-06T02:41:57;14.90;99.90
37002;DHT22;22913;51.910;8.374;2022-07-06T02:44:44;14.80;99.90
37002;DHT22;22913;51.910;8.374;2022-07-06T02:47:30;14.80;99.90
37002;DHT22;22913;51.910;8.374;2022-07-06T02:50:15;14.80;99.90
37002;DHT22;22913;51.910;8.374;2022-07-06T02:53:01;14.80;99.90
37002;DHT22;22913;51.910;8.374;2022-07-06T02:55:46;14.80;99.90
37002;DHT22;22913;51.910;8.374;2022-07-06T02:58:32;14.80;99.90
37002;DHT22;22913;51.910;8.374;2022-07-06T03:01:19;14.70;99.90
37002;DHT22;22913;51.910;8.374;2022-07-06T03:04:05;14.70;99.90
37002;DHT22;22913;51.910;8.374;2022-07-06T03:06:50;14.70;99.90
37002;DHT22;22913;51.910;8.374;2022-07-06T03:09:37;14.70;99.90
37002;DHT22;22913;51.910;8.374;2022-07-06T03:12:22;14.70;99.90
37002;DHT22;22913;51.910;8.374;2022-07-06T03:15:09;14.70;99.90
37002;DHT22;22913;51.910;8.374;2022-07-06T03:17:56;14.80;99.90
37002;DHT22;22913;51.910;8.374;2022-07-06T03:20:42;14.70;99.90
37002;DHT22;22913;51.910;8.374;2022-07-06T03:23:27;14.80;99.90
37002;DHT22;22913;51.910;8.374;2022-07-06T03:26:13;14.70;99.90
37002;DHT22;22913;51.910;8.374;2022-07-06T03:28:58;14.70;99.90
37002;DHT22;22913;51.910;8.374;2022-07-06T03:31:44;14.60;99.90
37002;DHT22;22913;51.910;8.374;2022-07-06T03:34:31;14.60;99.90
37002;DHT22;22913;51.910;8.374;2022-07-06T03:37:17;14.50;99.90
37002;DHT22;22913;51.910;8.374;2022-07-06T03:40:03;14.40;99.90
37002;DHT22;22913;51.910;8.374;2022-07-06T03:42:49;14.40;99.90
37002;DHT22;22913;51.910;8.374;2022-07-06T03:45:34;14.30;99.90
37002;DHT22;22913;51.910;8.374;2022-07-06T03:48:20;14.20;99.90
37002;DHT22;22913;51.910;8.374;2022-07-06T03:51:07;14.20;99.90
37002;DHT22;22913;51.910;8.374;2022-07-06T03:53:54;14.20;99.90
37002;DHT22;22913;51.910;8.374;2022-07-06T03:56:40;14.10;99.90
37002;DHT22;22913;51.910;8.374;2022-07-06T03:59:25;14.00;99.90
37002;DHT22;22913;51.910;8.374;2022-07-06T04:02:11;13.90;99.90
37002;DHT22;22913;51.910;8.374;2022-07-06T04:04:57;14.00;99.90
37002;DHT22;22913;51.910;8.374;2022-07-06T04:07:44;14.00;99.90
37002;DHT22;22913;51.910;8.374;2022-07-06T04:10:29;14.00;99.90
37002;DHT22;22913;51.910;8.374;2022-07-06T04:13:15;14.00;99.90
37002;DHT22;22913;51.910;8.374;2022-07-06T04:16:00;13.90;99.90
37002;DHT22;22913;51.910;8.374;2022-07-06T04:18:46;13.90;99.90
37002;DHT22;22913;51.910;8.374;2022-07-06T04:21:32;13.90;99.90
37002;DHT22;22913;51.910;8.374;2022-07-06T04:24:19;13.90;99.90
37002;DHT22;22913;51.910;8.374;2022-07-06T04:27:04;13.90;99.90
37002;DHT22;22913;51.910;8.374;2022-07-06T04:29:50;13.90;99.90
37002;DHT22;22913;51.910;8.374;2022-07-06T04:32:36;13.90;99.90
37002;DHT22;22913;51.910;8.374;2022-07-06T04:35:22;13.90;99.90
37002;DHT22;22913;51.910;8.374;2022-07-06T04:38:08;13.90;99.90
37002;DHT22;22913;51.910;8.374;2022-07-06T04:40:55;14.00;99.90
37002;DHT22;22913;51.910;8.374;2022-07-06T04:43:40;14.00;99.90
37002;DHT22;22913;51.910;8.374;2022-07-06T04:46:28;14.00;99.90
37002;DHT22;22913;51.910;8.374;2022-07-06T04:49:14;14.00;99.90
37002;DHT22;22913;51.910;8.374;2022-07-06T04:51:59;14.00;99.90
37002;DHT22;22913;51.910;8.374;2022-07-06T04:54:45;13.90;99.90
37002;DHT22;22913;51.910;8.374;2022-07-06T04:57:32;14.00;99.90
37002;DHT22;22913;51.910;8.374;2022-07-06T05:00:18;13.90;99.90
37002;DHT22;22913;51.910;8.374;2022-07-06T05:03:04;13.90;99.90
37002;DHT22;22913;51.910;8.374;2022-07-06T05:05:50;14.00;99.90
37002;DHT22;22913;51.910;8.374;2022-07-06T05:08:36;14.00;99.90
37002;DHT22;22913;51.910;8.374;2022-07-06T05:11:23;14.10;99.90
37002;DHT22;22913;51.910;8.374;2022-07-06T05:14:10;14.20;99.90
37002;DHT22;22913;51.910;8.374;2022-07-06T05:16:55;14.20;99.90
37002;DHT22;22913;51.910;8.374;2022-07-06T05:19:41;14.20;99.90
37002;DHT22;22913;51.910;8.374;2022-07-06T05:22:27;14.30;99.90
37002;DHT22;22913;51.910;8.374;2022-07-06T05:25:13;14.30;99.90
37002;DHT22;22913;51.910;8.374;2022-07-06T05:27:59;14.30;99.90
37002;DHT22;22913;51.910;8.374;2022-07-06T05:30:46;14.30;99.90
37002;DHT22;22913;51.910;8.374;2022-07-06T05:33:32;14.30;99.90
37002;DHT22;22913;51.910;8.374;2022-07-06T05:36:17;14.40;99.90
37002;DHT22;22913;51.910;8.374;2022-07-06T05:39:03;14.40;99.90
37002;DHT22;22913;51.910;8.374;2022-07-06T05:41:49;14.40;99.90
37002;DHT22;22913;51.910;8.374;2022-07-06T05:44:35;14.50;99.90
37002;DHT22;22913;51.910;8.374;2022-07-06T05:47:22;14.60;99.90
37002;DHT22;22913;51.910;8.374;2022-07-06T05:50:25;14.60;99.90
37002;DHT22;22913;51.910;8.374;2022-07-06T05:53:11;14.60;99.90
37002;DHT22;22913;51.910;8.374;2022-07-06T05:55:57;14.60;99.90
37002;DHT22;22913;51.910;8.374;2022-07-06T05:58:43;14.60;99.90
37002;DHT22;22913;51.910;8.374;2022-07-06T06:01:28;14.70;99.90
37002;DHT22;22913;51.910;8.374;2022-07-06T06:04:15;14.70;99.90
37002;DHT22;22913;51.910;8.374;2022-07-06T06:07:01;14.60;99.90
37002;DHT22;22913;51.910;8.374;2022-07-06T06:09:47;14.60;99.90
37002;DHT22;22913;51.910;8.374;2022-07-06T06:12:33;14.70;99.90
37002;DHT22;22913;51.910;8.374;2022-07-06T06:15:19;14.70;99.90
37002;DHT22;22913;51.910;8.374;2022-07-06T06:18:05;14.80;99.90
37002;DHT22;22913;51.910;8.374;2022-07-06T06:20:53;14.90;99.90
37002;DHT22;22913;51.910;8.374;2022-07-06T06:23:38;14.90;99.90
37002;DHT22;22913;51.910;8.374;2022-07-06T06:26:24;15.10;99.90
37002;DHT22;22913;51.910;8.374;2022-07-06T06:29:10;15.10;99.90
37002;DHT22;22913;51.910;8.374;2022-07-06T06:31:55;15.20;99.90
37002;DHT22;22913;51.910;8.374;2022-07-06T06:34:41;15.30;99.90
37002;DHT22;22913;51.910;8.374;2022-07-06T06:37:29;15.30;99.90
37002;DHT22;22913;51.910;8.374;2022-07-06T06:40:14;15.30;99.90
37002;DHT22;22913;51.910;8.374;2022-07-06T06:43:00;15.40;99.90
37002;DHT22;22913;51.910;8.374;2022-07-06T06:45:46;15.60;99.90
37002;DHT22;22913;51.910;8.374;2022-07-06T06:48:32;16.00;99.90
37002;DHT22;22913;51.910;8.374;2022-07-06T06:51:17;16.50;99.90
37002;DHT22;22913;51.910;8.374;2022-07-06T06:54:06;16.90;99.90
37002;DHT22;22913;51.910;8.374;2022-07-06T06:56:52;17.10;99.90
37002;DHT22;22913;51.910;8.374;2022-07-06T06:59:37;17.30;99.90
37002;DHT22;22913;51.910;8.374;2022-07-06T07:02:23;17.40;99.90
37002;DHT22;22913;51.910;8.374;2022-07-06T07:05:09;17.80;99.90
37002;DHT22;22913;51.910;8.374;2022-07-06T07:07:54;18.00;99.90
37002;DHT22;22913;51.910;8.374;2022-07-06T07:10:44;18.00;99.90
37002;DHT22;22913;51.910;8.374;2022-07-06T07:13:30;18.30;99.90
37002;DHT22;22913;51.910;8.374;2022-07-06T07:16:15;18.40;99.90
37002;DHT22;22913;51.910;8.374;2022-07-06T07:19:01;18.30;99.90
37002;DHT22;22913;51.910;8.374;2022-07-06T07:21:47;18.00;99.90
37002;DHT22;22913;51.910;8.374;2022-07-06T07:24:33;18.20;99.90
37002;DHT22;22913;51.910;8.374;2022-07-06T07:27:20;18.40;99.90
37002;DHT22;22913;51.910;8.374;2022-07-06T07:30:06;18.60;99.90
37002;DHT22;22913;51.910;8.374;2022-07-06T07:32:52;18.50;99.90
37002;DHT22;22913;51.910;8.374;2022-07-06T07:35:40;18.30;99.90
37002;DHT22;22913;51.910;8.374;2022-07-06T07:38:26;18.10;99.90
37002;DHT22;22913;51.910;8.374;2022-07-06T07:41:11;18.00;99.90
37002;DHT22;22913;51.910;8.374;2022-07-06T07:43:59;18.00;99.90
37002;DHT22;22913;51.910;8.374;2022-07-06T07:46:45;18.00;99.90
37002;DHT22;22913;51.910;8.374;2022-07-06T07:49:30;17.90;99.90
37002;DHT22;22913;51.910;8.374;2022-07-06T07:52:16;17.70;99.90
37002;DHT22;22913;51.910;8.374;2022-07-06T07:55:02;17.60;99.90
37002;DHT22;22913;51.910;8.374;2022-07-06T07:57:48;17.70;99.90
37002;DHT22;22913;51.910;8.374;2022-07-06T08:00:35;17.80;99.90
37002;DHT22;22913;51.910;8.374;2022-07-06T08:03:20;17.90;99.90
37002;DHT22;22913;51.910;8.374;2022-07-06T08:06:06;17.90;99.90
37002;DHT22;22913;51.910;8.374;2022-07-06T08:08:52;17.90;99.90
37002;DHT22;22913;51.910;8.374;2022-07-06T08:11:37;18.10;99.90
37002;DHT22;22913;51.910;8.374;2022-07-06T08:14:23;18.20;99.90
37002;DHT22;22913;51.910;8.374;2022-07-06T08:17:10;18.10;99.90
37002;DHT22;22913;51.910;8.374;2022-07-06T08:19:56;18.20;99.90
37002;DHT22;22913;51.910;8.374;2022-07-06T08:22:41;18.10;99.90
37002;DHT22;22913;51.910;8.374;2022-07-06T08:25:27;18.20;99.90
37002;DHT22;22913;51.910;8.374;2022-07-06T08:28:13;18.40;99.90
37002;DHT22;22913;51.910;8.374;2022-07-06T08:30:58;18.50;99.90
37002;DHT22;22913;51.910;8.374;2022-07-06T08:33:46;18.50;99.90
37002;DHT22;22913;51.910;8.374;2022-07-06T08:36:32;18.60;99.90
37002;DHT22;22913;51.910;8.374;2022-07-06T08:39:17;18.70;99.90
37002;DHT22;22913;51.910;8.374;2022-07-06T08:42:03;18.60;99.90
37002;DHT22;22913;51.910;8.374;2022-07-06T08:44:50;18.50;99.90
37002;DHT22;22913;51.910;8.374;2022-07-06T08:47:39;18.50;99.90
37002;DHT22;22913;51.910;8.374;2022-07-06T08:50:28;18.60;99.90
37002;DHT22;22913;51.910;8.374;2022-07-06T08:53:14;18.60;99.90
37002;DHT22;22913;51.910;8.374;2022-07-06T08:56:00;18.50;99.90
37002;DHT22;22913;51.910;8.374;2022-07-06T08:58:45;18.40;99.90
37002;DHT22;22913;51.910;8.374;2022-07-06T09:01:31;18.20;99.90
37002;DHT22;22913;51.910;8.374;2022-07-06T09:04:18;18.10;99.90
37002;DHT22;22913;51.910;8.374;2022-07-06T09:07:05;18.10;99.90
37002;DHT22;22913;51.910;8.374;2022-07-06T09:09:52;18.00;99.90
37002;DHT22;22913;51.910;8.374;2022-07-06T09:12:38;18.00;99.90
37002;DHT22;22913;51.910;8.374;2022-07-06T09:15:27;17.80;99.90
37002;DHT22;22913;51.910;8.374;2022-07-06T09:18:13;17.80;99.90
37002;DHT22;22913;51.910;8.374;2022-07-06T09:20:59;17.70;99.90
37002;DHT22;22913;51.910;8.374;2022-07-06T09:23:46;17.70;99.90
37002;DHT22;22913;51.910;8.374;2022-07-06T09:26:32;17.70;99.90
37002;DHT22;22913;51.910;8.374;2022-07-06T09:29:18;17.50;99.90
37002;DHT22;22913;51.910;8.374;2022-07-06T09:32:04;17.50;99.90
37002;DHT22;22913;51.910;8.374;2022-07-06T09:34:49;17.40;99.90
37002;DHT22;22913;51.910;8.374;2022-07-06T09:37:35;17.40;99.90
37002;DHT22;22913;51.910;8.374;2022-07-06T09:40:23;17.20;99.90
37002;DHT22;22913;51.910;8.374;2022-07-06T09:43:10;17.40;99.90
37002;DHT22;22913;51.910;8.374;2022-07-06T09:45:57;17.50;99.90
37002;DHT22;22913;51.910;8.374;2022-07-06T09:48:43;17.70;99.90
37002;DHT22;22913;51.910;8.374;2022-07-06T09:51:30;18.00;99.90
37002;DHT22;22913;51.910;8.374;2022-07-06T09:54:16;18.30;99.90
37002;DHT22;22913;51.910;8.374;2022-07-06T09:57:03;18.40;99.90
37002;DHT22;22913;51.910;8.374;2022-07-06T09:59:50;18.40;99.90
37002;DHT22;22913;51.910;8.374;2022-07-06T10:02:36;18.50;99.90
37002;DHT22;22913;51.910;8.374;2022-07-06T10:05:22;18.50;99.90
37002;DHT22;22913;51.910;8.374;2022-07-06T10:08:14;18.50;99.90
37002;DHT22;22913;51.910;8.374;2022-07-06T10:11:00;18.60;99.90
37002;DHT22;22913;51.910;8.374;2022-07-06T10:13:48;18.50;99.90
37002;DHT22;22913;51.910;8.374;2022-07-06T10:16:37;18.40;99.90
37002;DHT22;22913;51.910;8.374;2022-07-06T10:19:22;18.30;99.90
37002;DHT22;22913;51.910;8.374;2022-07-06T10:22:08;18.30;99.90
37002;DHT22;22913;51.910;8.374;2022-07-06T10:24:55;18.30;99.90
37002;DHT22;22913;51.910;8.374;2022-07-06T10:27:43;18.30;99.90
37002;DHT22;22913;51.910;8.374;2022-07-06T10:30:31;18.20;99.90
37002;DHT22;22913;51.910;8.374;2022-07-06T10:33:18;18.10;99.90
37002;DHT22;22913;51.910;8.374;2022-07-06T10:36:04;18.10;99.90
37002;DHT22;22913;51.910;8.374;2022-07-06T10:38:51;18.10;99.90
37002;DHT22;22913;51.910;8.374;2022-07-06T10:41:37;18.20;99.90
37002;DHT22;22913;51.910;8.374;2022-07-06T10:44:23;18.10;99.90
37002;DHT22;22913;51.910;8.374;2022-07-06T10:47:10;18.10;99.90
37002;DHT22;22913;51.910;8.374;2022-07-06T10:50:00;18.20;99.90
37002;DHT22;22913;51.910;8.374;2022-07-06T10:52:50;18.20;99.90
37002;DHT22;22913;51.910;8.374;2022-07-06T10:55:37;18.30;99.90
37002;DHT22;22913;51.910;8.374;2022-07-06T10:58:48;18.60;99.90
37002;DHT22;22913;51.910;8.374;2022-07-06T11:01:35;18.40;99.90
37002;DHT22;22913;51.910;8.374;2022-07-06T11:04:30;18.50;99.90
37002;DHT22;22913;51.910;8.374;2022-07-06T11:07:17;18.70;99.90
37002;DHT22;22913;51.910;8.374;2022-07-06T11:10:03;19.20;99.90
37002;DHT22;22913;51.910;8.374;2022-07-06T11:12:58;19.50;99.90
37002;DHT22;22913;51.910;8.374;2022-07-06T11:15:47;19.80;99.90
37002;DHT22;22913;51.910;8.374;2022-07-06T11:18:38;20.20;99.90
37002;DHT22;22913;51.910;8.374;2022-07-06T11:21:35;20.50;99.90
37002;DHT22;22913;51.910;8.374;2022-07-06T11:24:22;20.60;99.90
37002;DHT22;22913;51.910;8.374;2022-07-06T11:27:08;20.60;99.90
37002;DHT22;22913;51.910;8.374;2022-07-06T11:29:54;20.50;99.90
37002;DHT22;22913;51.910;8.374;2022-07-06T11:32:40;20.50;99.90
37002;DHT22;22913;51.910;8.374;2022-07-06T11:35:26;20.20;99.90
37002;DHT22;22913;51.910;8.374;2022-07-06T11:38:26;20.20;99.90
37002;DHT22;22913;51.910;8.374;2022-07-06T11:41:12;19.90;99.90
37002;DHT22;22913;51.910;8.374;2022-07-06T11:43:59;19.90;99.90
37002;DHT22;22913;51.910;8.374;2022-07-06T11:46:44;19.90;99.90
37002;DHT22;22913;51.910;8.374;2022-07-06T11:49:31;19.90;99.90
37002;DHT22;22913;51.910;8.374;2022-07-06T11:52:16;19.90;99.90
37002;DHT22;22913;51.910;8.374;2022-07-06T11:55:04;19.90;99.90
37002;DHT22;22913;51.910;8.374;2022-07-06T11:57:50;20.00;99.90
37002;DHT22;22913;51.910;8.374;2022-07-06T12:00:40;20.50;99.90
37002;DHT22;22913;51.910;8.374;2022-07-06T12:03:25;21.10;99.90
37002;DHT22;22913;51.910;8.374;2022-07-06T12:06:17;21.90;99.90
37002;DHT22;22913;51.910;8.374;2022-07-06T12:09:03;22.40;99.90
37002;DHT22;22913;51.910;8.374;2022-07-06T12:11:51;22.50;99.90
37002;DHT22;22913;51.910;8.374;2022-07-06T12:14:38;22.40;99.90
37002;DHT22;22913;51.910;8.374;2022-07-06T12:17:25;22.30;99.90
37002;DHT22;22913;51.910;8.374;2022-07-06T12:20:11;22.00;99.90
37002;DHT22;22913;51.910;8.374;2022-07-06T12:23:01;22.10;99.90
37002;DHT22;22913;51.910;8.374;2022-07-06T12:25:52;22.30;99.90
37002;DHT22;22913;51.910;8.374;2022-07-06T12:28:41;22.80;99.90
37002;DHT22;22913;51.910;8.374;2022-07-06T12:31:34;23.30;99.90
37002;DHT22;22913;51.910;8.374;2022-07-06T12:34:21;23.30;99.90
37002;DHT22;22913;51.910;8.374;2022-07-06T12:37:09;23.10;99.90
37002;DHT22;22913;51.910;8.374;2022-07-06T12:39:56;22.80;99.90
37002;DHT22;22913;51.910;8.374;2022-07-06T12:42:45;22.70;99.90
37002;DHT22;22913;51.910;8.374;2022-07-06T12:45:32;22.70;99.90
37002;DHT22;22913;51.910;8.374;2022-07-06T12:48:18;22.40;99.90
37002;DHT22;22913;51.910;8.374;2022-07-06T12:51:03;22.40;99.90
37002;DHT22;22913;51.910;8.374;2022-07-06T12:53:49;22.50;99.90
37002;DHT22;22913;51.910;8.374;2022-07-06T12:56:35;22.70;99.90
37002;DHT22;22913;51.910;8.374;2022-07-06T12:59:22;23.20;99.90
37002;DHT22;22913;51.910;8.374;2022-07-06T13:02:21;23.80;99.90
37002;DHT22;22913;51.910;8.374;2022-07-06T13:05:08;24.00;99.90
37002;DHT22;22913;51.910;8.374;2022-07-06T13:07:55;23.90;99.90
37002;DHT22;22913;51.910;8.374;2022-07-06T13:10:41;23.60;99.90
37002;DHT22;22913;51.910;8.374;2022-07-06T13:13:27;24.10;99.90
37002;DHT22;22913;51.910;8.374;2022-07-06T13:16:13;25.00;99.90
37002;DHT22;22913;51.910;8.374;2022-07-06T13:19:00;25.70;99.90
37002;DHT22;22913;51.910;8.374;2022-07-06T13:21:46;25.90;99.90
37002;DHT22;22913;51.910;8.374;2022-07-06T13:24:31;26.30;99.90
37002;DHT22;22913;51.910;8.374;2022-07-06T13:27:17;26.80;99.90
37002;DHT22;22913;51.910;8.374;2022-07-06T13:30:04;27.00;99.90
37002;DHT22;22913;51.910;8.374;2022-07-06T13:32:50;26.80;99.90
37002;DHT22;22913;51.910;8.374;2022-07-06T13:35:36;27.10;99.90
37002;DHT22;22913;51.910;8.374;2022-07-06T13:38:22;27.00;99.90
37002;DHT22;22913;51.910;8.374;2022-07-06T13:41:08;27.20;99.90
37002;DHT22;22913;51.910;8.374;2022-07-06T13:43:54;27.40;99.90
37002;DHT22;22913;51.910;8.374;2022-07-06T13:46:39;28.00;99.90
37002;DHT22;22913;51.910;8.374;2022-07-06T13:49:25;27.80;99.90
37002;DHT22;22913;51.910;8.374;2022-07-06T13:52:12;28.50;99.90
37002;DHT22;22913;51.910;8.374;2022-07-06T13:54:58;28.20;99.90
37002;DHT22;22913;51.910;8.374;2022-07-06T13:57:43;28.00;99.90
37002;DHT22;22913;51.910;8.374;2022-07-06T14:00:29;28.50;99.90
37002;DHT22;22913;51.910;8.374;2022-07-06T14:03:15;28.40;99.90
37002;DHT22;22913;51.910;8.374;2022-07-06T14:06:01;27.70;99.90
37002;DHT22;22913;51.910;8.374;2022-07-06T14:08:48;27.00;99.90
37002;DHT22;22913;51.910;8.374;2022-07-06T14:11:33;26.70;99.90
37002;DHT22;22913;51.910;8.374;2022-07-06T14:14:19;26.30;99.90
37002;DHT22;22913;51.910;8.374;2022-07-06T14:17:05;26.30;99.90
37002;DHT22;22913;51.910;8.374;2022-07-06T14:19:50;26.90;99.90
37002;DHT22;22913;51.910;8.374;2022-07-06T14:22:36;26.90;99.90
37002;DHT22;22913;51.910;8.374;2022-07-06T14:25:24;26.40;99.90
37002;DHT22;22913;51.910;8.374;2022-07-06T14:28:10;26.10;99.90
37002;DHT22;22913;51.910;8.374;2022-07-06T14:30:57;25.70;99.90
37002;DHT22;22913;51.910;8.374;2022-07-06T14:33:45;25.60;99.90
37002;DHT22;22913;51.910;8.374;2022-07-06T14:36:31;25.70;99.90
37002;DHT22;22913;51.910;8.374;2022-07-06T14:39:17;25.50;99.90
37002;DHT22;22913;51.910;8.374;2022-07-06T14:42:05;25.70;99.90
37002;DHT22;22913;51.910;8.374;2022-07-06T14:44:50;25.50;99.90
37002;DHT22;22913;51.910;8.374;2022-07-06T14:47:36;25.30;99.90
37002;DHT22;22913;51.910;8.374;2022-07-06T14:50:22;25.20;99.90
37002;DHT22;22913;51.910;8.374;2022-07-06T14:53:08;25.00;99.90
37002;DHT22;22913;51.910;8.374;2022-07-06T14:55:53;25.00;99.90
37002;DHT22;22913;51.910;8.374;2022-07-06T14:58:40;24.80;99.90
37002;DHT22;22913;51.910;8.374;2022-07-06T15:01:26;24.40;99.90
37002;DHT22;22913;51.910;8.374;2022-07-06T15:04:11;24.00;99.90
37002;DHT22;22913;51.910;8.374;2022-07-06T15:06:57;23.70;99.90
37002;DHT22;22913;51.910;8.374;2022-07-06T15:09:43;23.50;99.90
37002;DHT22;22913;51.910;8.374;2022-07-06T15:12:28;23.40;99.90
37002;DHT22;22913;51.910;8.374;2022-07-06T15:15:15;23.20;99.90
37002;DHT22;22913;51.910;8.374;2022-07-06T15:18:01;22.90;99.90
37002;DHT22;22913;51.910;8.374;2022-07-06T15:20:46;23.00;99.90
37002;DHT22;22913;51.910;8.374;2022-07-06T15:23:32;22.90;99.90
37002;DHT22;22913;51.910;8.374;2022-07-06T15:26:17;22.70;99.90
37002;DHT22;22913;51.910;8.374;2022-07-06T15:29:03;22.70;99.90
37002;DHT22;22913;51.910;8.374;2022-07-06T15:31:50;22.70;99.90
37002;DHT22;22913;51.910;8.374;2022-07-06T15:34:35;22.60;99.90
37002;DHT22;22913;51.910;8.374;2022-07-06T15:37:22;22.50;99.90
37002;DHT22;22913;51.910;8.374;2022-07-06T15:40:08;22.50;99.90
37002;DHT22;22913;51.910;8.374;2022-07-06T15:42:56;22.40;99.90
37002;DHT22;22913;51.910;8.374;2022-07-06T15:45:41;22.30;99.90
37002;DHT22;22913;51.910;8.374;2022-07-06T15:48:29;22.20;99.90
37002;DHT22;22913;51.910;8.374;2022-07-06T15:51:15;22.30;99.90
37002;DHT22;22913;51.910;8.374;2022-07-06T15:54:01;22.40;99.90
37002;DHT22;22913;51.910;8.374;2022-07-06T15:56:46;22.40;99.90
37002;DHT22;22913;51.910;8.374;2022-07-06T15:59:32;22.70;99.90
37002;DHT22;22913;51.910;8.374;2022-07-06T16:02:18;22.90;99.90
37002;DHT22;22913;51.910;8.374;2022-07-06T16:05:05;22.90;99.90
37002;DHT22;22913;51.910;8.374;2022-07-06T16:07:51;22.90;99.90
37002;DHT22;22913;51.910;8.374;2022-07-06T16:10:38;22.90;99.90
37002;DHT22;22913;51.910;8.374;2022-07-06T16:13:23;22.70;99.90
37002;DHT22;22913;51.910;8.374;2022-07-06T16:16:10;22.50;99.90
37002;DHT22;22913;51.910;8.374;2022-07-06T16:18:55;22.40;99.90
37002;DHT22;22913;51.910;8.374;2022-07-06T16:21:42;22.30;99.90
37002;DHT22;22913;51.910;8.374;2022-07-06T16:24:28;22.40;99.90
37002;DHT22;22913;51.910;8.374;2022-07-06T16:27:14;22.40;99.90
37002;DHT22;22913;51.910;8.374;2022-07-06T16:29:59;22.60;99.90
37002;DHT22;22913;51.910;8.374;2022-07-06T16:32:45;22.70;99.90
37002;DHT22;22913;51.910;8.374;2022-07-06T16:35:31;22.90;99.90
37002;DHT22;22913;51.910;8.374;2022-07-06T16:38:18;23.00;99.90
37002;DHT22;22913;51.910;8.374;2022-07-06T16:41:04;22.90;99.90
37002;DHT22;22913;51.910;8.374;2022-07-06T16:43:50;22.90;99.90
37002;DHT22;22913;51.910;8.374;2022-07-06T16:46:35;23.00;99.90
37002;DHT22;22913;51.910;8.374;2022-07-06T16:49:21;23.20;99.90
37002;DHT22;22913;51.910;8.374;2022-07-06T16:52:07;23.20;99.90
37002;DHT22;22913;51.910;8.374;2022-07-06T16:54:54;23.10;99.90
37002;DHT22;22913;51.910;8.374;2022-07-06T16:57:40;23.10;99.90
37002;DHT22;22913;51.910;8.374;2022-07-06T17:00:27;23.10;99.90
37002;DHT22;22913;51.910;8.374;2022-07-06T17:03:13;22.90;99.90
37002;DHT22;22913;51.910;8.374;2022-07-06T17:05:59;22.90;99.90
37002;DHT22;22913;51.910;8.374;2022-07-06T17:08:45;22.90;99.90
37002;DHT22;22913;51.910;8.374;2022-07-06T17:11:32;23.00;99.90
37002;DHT22;22913;51.910;8.374;2022-07-06T17:14:17;23.20;99.90
37002;DHT22;22913;51.910;8.374;2022-07-06T17:17:03;23.20;99.90
37002;DHT22;22913;51.910;8.374;2022-07-06T17:19:49;23.30;99.90
37002;DHT22;22913;51.910;8.374;2022-07-06T17:22:34;23.40;99.90
37002;DHT22;22913;51.910;8.374;2022-07-06T17:25:20;23.40;99.90
37002;DHT22;22913;51.910;8.374;2022-07-06T17:28:07;23.40;99.90
37002;DHT22;22913;51.910;8.374;2022-07-06T17:30:53;22.80;99.90